Time;durP1;ratioP1;P1;durP2;ratioP2;P2;SDS_P1;SDS_P2;PMS_P1;PMS_P2;Temp;Humidity;BMP_temperature;BMP_pressure;BME280_temperature;BME280_humidity;BME280_pressure;Samples;Min_cycle;Max_cycle;Signal;HPM_P1;HPM_P2
2022/07/04 00:01:58;;;;;;;34.45;5.50;;;;;;;19.70;100.00;97974.50;5037096;28;20139;-58
2022/07/04 00:04:23;;;;;;;31.65;5.03;;;;;;;19.83;100.00;97970.78;5039663;28;20024;-58
2022/07/04 00:06:49;;;;;;;27.00;4.68;;;;;;;19.84;100.00;97975.09;5039015;28;20049;-58
2022/07/04 00:09:14;;;;;;;61.35;8.18;;;;;;;19.91;100.00;97982.56;5036578;28;20021;-57
2022/07/04 00:11:39;;;;;;;25.02;4.22;;;;;;;19.90;100.00;97980.88;5038042;28;20041;-57
2022/07/04 00:14:05;;;;;;;26.15;4.65;;;;;;;19.84;100.00;97977.75;5039283;28;20825;-59
2022/07/04 00:16:30;;;;;;;36.15;5.72;;;;;;;19.90;100.00;97987.00;5037892;28;20045;-58
2022/07/04 00:18:56;;;;;;;29.77;4.80;;;;;;;20.30;100.00;97986.47;5038559;28;20025;-58
2022/07/04 00:21:21;;;;;;;30.50;5.05;;;;;;;19.92;100.00;97990.38;5036369;28;20040;-57
2022/07/04 00:23:47;;;;;;;28.33;4.55;;;;;;;19.69;100.00;97994.81;5018639;28;20027;-59
2022/07/04 00:26:12;;;;;;;29.30;4.80;;;;;;;19.83;100.00;97991.09;5037486;28;20590;-57
2022/07/04 00:28:37;;;;;;;39.08;6.05;;;;;;;19.80;100.00;97992.19;5038505;28;20056;-58
2022/07/04 00:31:03;;;;;;;29.35;5.13;;;;;;;19.63;100.00;97987.38;5038276;28;20044;-58
2022/07/04 00:33:28;;;;;;;23.92;4.28;;;;;;;19.50;100.00;97983.97;5038651;28;20037;-58
2022/07/04 00:35:53;;;;;;;28.00;4.95;;;;;;;19.49;100.00;97984.97;5038090;28;20033;-58
2022/07/04 00:38:19;;;;;;;30.42;5.25;;;;;;;19.47;100.00;97989.53;5038231;28;20483;-58
2022/07/04 00:40:44;;;;;;;31.67;5.20;;;;;;;19.69;100.00;97994.81;5037101;28;20128;-58
2022/07/04 00:43:10;;;;;;;25.25;4.28;;;;;;;20.00;100.00;98000.38;5038758;28;20033;-58
2022/07/04 00:45:35;;;;;;;26.52;4.40;;;;;;;19.70;100.00;98000.94;5038109;28;20255;-59
2022/07/04 00:48:00;;;;;;;25.15;4.35;;;;;;;19.92;100.00;98000.97;5038558;28;20025;-58
2022/07/04 00:50:26;;;;;;;26.23;4.63;;;;;;;20.13;100.00;97993.13;5037022;28;20123;-57
2022/07/04 00:52:53;;;;;;;31.60;4.95;;;;;;;19.92;100.00;97987.72;5038357;28;20016;-58
2022/07/04 00:55:19;;;;;;;26.02;4.75;;;;;;;19.80;100.00;97986.91;5037842;28;20859;-58
2022/07/04 00:57:45;;;;;;;26.02;4.55;;;;;;;20.31;100.00;97974.06;5037890;28;20119;-58
2022/07/04 01:00:10;;;;;;;30.55;5.38;;;;;;;19.53;100.00;97979.28;5037485;28;20119;-57
2022/07/04 01:02:36;;;;;;;21.35;4.20;;;;;;;18.98;100.00;97983.53;5037688;28;20548;-57
2022/07/04 01:05:01;;;;;;;30.50;5.28;;;;;;;18.85;100.00;97983.63;5037762;28;20021;-57
2022/07/04 01:07:27;;;;;;;27.05;4.50;;;;;;;19.01;100.00;97997.38;5037875;28;20041;-58
2022/07/04 01:09:53;;;;;;;33.80;5.28;;;;;;;19.25;100.00;97991.19;5037934;28;20048;-60
2022/07/04 01:12:26;;;;;;;28.77;4.82;;;;;;;18.82;100.00;97990.00;5037344;28;20049;-59
2022/07/04 01:14:51;;;;;;;28.10;4.93;;;;;;;18.39;100.00;97987.00;5038660;28;20037;-60
2022/07/04 01:17:17;;;;;;;29.92;4.88;;;;;;;18.77;100.00;97988.63;5036749;28;20774;-59
2022/07/04 01:19:42;;;;;;;27.73;4.78;;;;;;;18.49;100.00;97991.50;5037982;28;20028;-58
2022/07/04 01:22:08;;;;;;;31.52;5.07;;;;;;;18.36;100.00;97992.50;5036766;28;20048;-58
2022/07/04 01:24:33;;;;;;;27.83;4.78;;;;;;;18.35;100.00;97993.47;5037967;28;20143;-57
2022/07/04 01:26:59;;;;;;;32.90;5.32;;;;;;;18.35;100.00;97990.84;5038082;28;20033;-58
2022/07/04 01:29:24;;;;;;;24.98;4.40;;;;;;;18.36;100.00;97981.94;5038277;28;20140;-57
2022/07/04 01:31:49;;;;;;;27.85;5.10;;;;;;;18.05;100.00;97992.09;5037064;28;20036;-58
2022/07/04 01:34:15;;;;;;;35.22;5.43;;;;;;;18.06;100.00;97988.50;5038901;28;20017;-59
2022/07/04 01:36:40;;;;;;;31.20;4.82;;;;;;;18.67;100.00;97991.94;5037829;28;20040;-58
2022/07/04 01:39:06;;;;;;;27.27;4.82;;;;;;;18.08;100.00;97997.13;5037800;28;20036;-57
2022/07/04 01:41:34;;;;;;;26.95;4.32;;;;;;;18.33;100.00;98000.66;5036926;28;20037;-58
2022/07/04 01:44:00;;;;;;;29.60;4.97;;;;;;;17.99;100.00;98003.06;5038242;28;20173;-57
2022/07/04 01:46:25;;;;;;;31.63;5.20;;;;;;;18.37;100.00;97991.56;5037950;28;20123;-58
2022/07/04 01:48:51;;;;;;;26.85;4.88;;;;;;;18.46;100.00;97998.81;5037565;28;20079;-58
2022/07/04 01:51:16;;;;;;;29.33;4.57;;;;;;;19.27;100.00;97995.38;5036652;28;20040;-57
2022/07/04 01:53:42;;;;;;;23.08;4.47;;;;;;;18.76;100.00;97989.56;5038409;28;20636;-57
2022/07/04 01:56:07;;;;;;;26.55;4.70;;;;;;;18.04;100.00;97998.31;5041579;28;20049;-58
2022/07/04 01:58:32;;;;;;;34.72;5.72;;;;;;;18.29;100.00;98003.53;5041957;28;20433;-58
2022/07/04 02:03:42;;;;;;;32.38;5.30;;;;;;;17.79;100.00;97988.63;5041755;28;20035;-60
2022/07/04 02:06:07;;;;;;;28.17;4.82;;;;;;;18.07;100.00;97987.56;5042014;28;20049;-57
2022/07/04 02:11:17;;;;;;;26.77;4.75;;;;;;;18.33;100.00;98000.66;5040202;28;20044;-57
2022/07/04 02:13:42;;;;;;;25.90;4.75;;;;;;;18.34;100.00;97989.13;5041649;28;20021;-58
2022/07/04 02:16:08;;;;;;;31.33;5.40;;;;;;;17.97;100.00;97991.78;5040758;28;20044;-57
2022/07/04 02:18:33;;;;;;;31.23;5.10;;;;;;;18.16;100.00;97994.81;5041065;28;20066;-57
2022/07/04 02:20:59;;;;;;;33.45;5.50;;;;;;;18.83;100.00;97990.81;5040284;28;20041;-59
2022/07/04 02:23:24;;;;;;;35.92;5.57;;;;;;;18.28;100.00;98001.81;5041061;28;20025;-57
2022/07/04 02:25:49;;;;;;;35.78;5.25;;;;;;;18.80;100.00;97994.53;5040672;28;20440;-57
2022/07/04 02:28:15;;;;;;;36.35;5.28;;;;;;;18.45;100.00;97992.69;5041416;28;20043;-58
2022/07/04 02:30:40;;;;;;;29.67;4.95;;;;;;;18.02;100.00;98001.06;5039180;28;20471;-58
2022/07/04 02:33:05;;;;;;;30.50;5.15;;;;;;;17.85;100.00;98012.81;5041415;28;20028;-57
2022/07/04 02:35:31;;;;;;;29.90;5.32;;;;;;;17.99;100.00;98006.56;5039734;28;20045;-59
2022/07/04 02:37:56;;;;;;;36.70;5.80;;;;;;;17.65;100.00;98006.28;5041048;28;20056;-57
2022/07/04 02:40:21;;;;;;;32.78;5.55;;;;;;;17.77;100.00;98009.00;5039342;28;20134;-57
2022/07/04 02:42:47;;;;;;;35.17;5.47;;;;;;;18.00;100.00;98015.34;5041448;28;20037;-57
2022/07/04 02:45:12;;;;;;;30.30;5.30;;;;;;;18.06;100.00;98014.88;5040060;28;20475;-57
2022/07/04 02:47:38;;;;;;;29.13;4.90;;;;;;;18.68;100.00;98013.91;5040728;28;20139;-57
2022/07/04 02:50:04;;;;;;;49.25;6.93;;;;;;;18.43;100.00;98013.06;5039541;28;20025;-57
2022/07/04 02:52:29;;;;;;;26.30;4.40;;;;;;;19.00;100.00;98008.88;5039493;28;20593;-57
2022/07/04 02:54:55;;;;;;;29.00;4.88;;;;;;;19.34;100.00;98016.91;5040274;28;20110;-58
2022/07/04 02:57:20;;;;;;;24.63;4.72;;;;;;;18.58;100.00;98031.38;5039476;28;20384;-58
2022/07/04 02:59:46;;;;;;;28.30;4.80;;;;;;;17.75;100.00;98032.84;5029783;28;20100;-57
2022/07/04 03:02:11;;;;;;;33.25;5.32;;;;;;;18.28;100.00;98028.22;5038291;28;20037;-58
2022/07/04 03:04:39;;;;;;;32.70;4.93;;;;;;;17.87;100.00;98039.94;5040289;28;20249;-58
2022/07/04 03:07:07;;;;;;;33.97;5.22;;;;;;;17.98;100.00;98035.72;5038951;28;20076;-58
2022/07/04 03:09:32;;;;;;;34.45;5.55;;;;;;;18.26;100.00;98031.94;5039908;28;20418;-57
2022/07/04 03:11:57;;;;;;;34.85;5.45;;;;;;;17.65;100.00;98040.56;5038994;28;20036;-57
2022/07/04 03:14:23;;;;;;;27.70;4.78;;;;;;;17.81;100.00;98039.47;5039908;28;20886;-57
2022/07/04 03:16:48;;;;;;;30.75;4.78;;;;;;;18.06;100.00;98043.91;5039029;28;20496;-58
2022/07/04 03:19:13;;;;;;;33.55;5.10;;;;;;;18.22;100.00;98047.16;5039225;28;20418;-58
2022/07/04 03:21:39;;;;;;;29.08;5.05;;;;;;;17.80;100.00;98043.94;5038140;28;20045;-58
2022/07/04 03:24:04;;;;;;;30.95;4.95;;;;;;;18.18;100.00;98058.91;5041142;28;20136;-58
2022/07/04 03:26:32;;;;;;;37.33;5.63;;;;;;;17.88;100.00;98060.13;5039144;28;20116;-57
2022/07/04 03:28:59;;;;;;;27.17;5.10;;;;;;;17.68;100.00;98065.88;5039461;28;20033;-58
2022/07/04 03:31:25;;;;;;;31.40;5.15;;;;;;;18.58;100.00;98063.97;5038485;28;20041;-58
2022/07/04 03:33:51;;;;;;;30.77;4.78;;;;;;;18.69;100.00;98066.66;5039888;28;20114;-57
2022/07/04 03:36:17;;;;;;;26.45;4.47;;;;;;;18.28;100.00;98065.19;5038746;28;20064;-58
2022/07/04 03:38:43;;;;;;;30.63;4.93;;;;;;;18.21;100.00;98063.94;5039831;28;20052;-57
2022/07/04 03:41:09;;;;;;;25.23;4.63;;;;;;;19.15;100.00;98058.94;5038576;28;20040;-59
2022/07/04 03:43:34;;;;;;;34.25;5.57;;;;;;;18.67;100.00;98060.63;5040229;28;20486;-58
2022/07/04 03:45:59;;;;;;;28.08;4.50;;;;;;;20.07;100.00;98062.47;5039136;28;20112;-58
2022/07/04 03:48:25;;;;;;;30.55;5.10;;;;;;;19.48;100.00;98065.25;5039446;28;20052;-58
2022/07/04 03:50:50;;;;;;;28.25;5.03;;;;;;;18.10;100.00;98085.84;5037907;28;20044;-57
2022/07/04 03:53:16;;;;;;;25.65;4.65;;;;;;;17.41;100.00;98085.28;5039608;28;20064;-57
2022/07/04 03:55:42;;;;;;;30.17;4.85;;;;;;;17.97;100.00;98087.63;5039908;28;20131;-57
2022/07/04 03:58:07;;;;;;;24.85;4.63;;;;;;;18.01;100.00;98089.13;5039477;28;20033;-57
2022/07/04 04:00:32;;;;;;;34.33;5.38;;;;;;;18.05;100.00;98095.03;5038054;28;20037;-58
2022/07/04 04:02:58;;;;;;;26.27;4.82;;;;;;;17.91;100.00;98099.47;5039291;28;20041;-57
2022/07/04 04:05:27;;;;;;;30.92;5.30;;;;;;;18.01;100.00;98101.47;5039056;28;20041;-57
2022/07/04 04:07:56;;;;;;;28.63;5.28;;;;;;;18.24;100.00;98099.84;5039376;28;20055;-59
2022/07/04 04:10:22;;;;;;;30.67;5.30;;;;;;;18.55;100.00;98101.16;5036792;28;20033;-58
2022/07/04 04:12:48;;;;;;;27.52;4.60;;;;;;;19.93;100.00;98094.47;5038700;28;21032;-58
2022/07/04 04:15:13;;;;;;;29.30;5.00;;;;;;;19.07;100.00;98105.28;5039505;28;20116;-58
2022/07/04 04:17:38;;;;;;;24.63;4.85;;;;;;;19.10;100.00;98103.38;5039047;28;20387;-57
2022/07/04 04:20:04;;;;;;;47.13;6.55;;;;;;;19.09;100.00;98099.88;5038018;28;20032;-57
2022/07/04 04:22:30;;;;;;;24.95;4.50;;;;;;;19.90;100.00;98100.00;5038601;28;20079;-57
2022/07/04 04:24:56;;;;;;;28.38;4.72;;;;;;;19.58;100.00;98105.94;5039393;28;21026;-59
2022/07/04 04:27:22;;;;;;;27.33;4.90;;;;;;;19.05;100.00;98119.59;5039062;28;20033;-59
2022/07/04 04:29:47;;;;;;;30.23;5.15;;;;;;;19.09;100.00;98115.75;5038464;28;20040;-58
2022/07/04 04:32:12;;;;;;;42.00;6.07;;;;;;;18.79;100.00;98116.19;5034206;28;20041;-58
2022/07/04 04:34:38;;;;;;;25.63;4.78;;;;;;;18.78;100.00;98122.41;5038982;28;20284;-58
2022/07/04 04:37:03;;;;;;;33.95;5.50;;;;;;;18.67;100.00;98131.97;5037265;28;20045;-58
2022/07/04 04:39:29;;;;;;;22.50;4.40;;;;;;;18.97;100.00;98128.09;5038761;28;20063;-58
2022/07/04 04:41:54;;;;;;;28.55;5.30;;;;;;;19.08;100.00;98127.28;5037268;28;20037;-58
2022/07/04 04:44:19;;;;;;;35.83;5.95;;;;;;;19.55;100.00;98119.41;5038174;28;20021;-58
2022/07/04 04:46:45;;;;;;;21.83;4.28;;;;;;;19.43;100.00;98127.31;5038210;28;20037;-57
2022/07/04 04:49:11;;;;;;;28.92;4.85;;;;;;;19.75;100.00;98134.63;5037340;28;20516;-58
2022/07/04 04:51:37;;;;;;;30.67;5.40;;;;;;;19.79;100.00;98135.22;5036836;28;20505;-58
2022/07/04 04:54:02;;;;;;;32.15;5.38;;;;;;;19.63;100.00;98138.19;5038930;28;20021;-58
2022/07/04 04:56:28;;;;;;;31.73;5.60;;;;;;;19.51;100.00;98139.13;5038501;28;20938;-57
2022/07/04 04:58:53;;;;;;;34.78;5.80;;;;;;;19.25;100.00;98144.53;5038234;28;20239;-58
2022/07/04 05:01:18;;;;;;;24.95;4.85;;;;;;;19.56;100.00;98136.97;5036871;28;20070;-60
2022/07/04 05:03:44;;;;;;;25.85;4.53;;;;;;;20.30;100.00;98132.13;5038125;28;20025;-58
2022/07/04 05:06:09;;;;;;;28.27;5.30;;;;;;;19.90;100.00;98145.00;5038500;28;20037;-59
2022/07/04 05:08:34;;;;;;;43.67;6.80;;;;;;;19.78;100.00;98147.63;5038819;28;20078;-57
2022/07/04 05:11:00;;;;;;;29.35;5.43;;;;;;;20.09;100.00;98149.69;5037427;28;20069;-58
2022/07/04 05:13:25;;;;;;;24.15;4.82;;;;;;;20.49;100.00;98151.88;5037762;28;20060;-58
2022/07/04 05:15:51;;;;;;;26.48;5.38;;;;;;;20.02;100.00;98162.59;5037657;28;20025;-56
2022/07/04 05:18:16;;;;;;;28.65;5.32;;;;;;;20.02;100.00;98165.25;5038622;28;20033;-57
2022/07/04 05:20:41;;;;;;;32.20;5.68;;;;;;;19.94;100.00;98157.03;5035009;28;20585;-56
2022/07/04 05:23:07;;;;;;;27.25;4.97;;;;;;;20.22;100.00;98151.28;5037989;28;20504;-56
2022/07/04 05:25:32;;;;;;;24.60;4.63;;;;;;;20.29;100.00;98143.72;5038690;28;20040;-56
2022/07/04 05:27:59;;;;;;;30.05;5.30;;;;;;;20.58;100.00;98141.38;5038579;28;20078;-55
2022/07/04 05:30:24;;;;;;;24.45;4.85;;;;;;;20.36;100.00;98144.06;5039297;28;20116;-58
2022/07/04 05:32:50;;;;;;;29.55;5.22;;;;;;;20.36;100.00;98146.72;5042566;28;20394;-56
2022/07/04 05:35:15;;;;;;;27.30;5.00;;;;;;;20.54;100.00;98142.59;5042488;28;20035;-56
2022/07/04 05:37:40;;;;;;;25.65;4.68;;;;;;;20.55;100.00;98141.66;5043124;28;20019;-56
2022/07/04 05:40:06;;;;;;;38.28;6.15;;;;;;;20.78;100.00;98141.63;5040720;28;20093;-56
2022/07/04 05:42:34;;;;;;;32.08;5.63;;;;;;;20.79;100.00;98149.47;5039193;28;20036;-57
2022/07/04 05:44:59;;;;;;;30.88;5.30;;;;;;;21.10;100.00;98152.28;5039235;28;20025;-56
2022/07/04 05:47:25;;;;;;;29.98;5.32;;;;;;;21.62;100.00;98147.13;5040569;28;20056;-55
2022/07/04 05:49:51;;;;;;;33.03;5.40;;;;;;;21.66;100.00;98153.88;5041780;28;20098;-56
2022/07/04 05:52:17;;;;;;;23.55;4.47;;;;;;;22.11;100.00;98153.59;5041428;28;20136;-56
2022/07/04 05:54:42;;;;;;;22.80;4.65;;;;;;;21.91;100.00;98160.59;5042056;28;20417;-56
2022/07/04 05:57:08;;;;;;;27.80;5.22;;;;;;;21.82;100.00;98152.59;5040994;28;20531;-56
2022/07/04 05:59:34;;;;;;;29.17;5.18;;;;;;;22.12;100.00;98155.25;5041789;28;20052;-56
2022/07/04 06:01:59;;;;;;;24.10;4.97;;;;;;;21.91;100.00;98155.28;5040215;28;20048;-56
2022/07/04 06:04:24;;;;;;;24.27;4.65;;;;;;;21.38;100.00;98158.78;5041688;28;20029;-56
2022/07/04 06:06:50;;;;;;;31.10;4.97;;;;;;;23.26;100.00;98163.91;5041986;28;20045;-56
2022/07/04 06:09:16;;;;;;;24.45;4.88;;;;;;;22.97;100.00;98163.00;5041409;28;20029;-56
2022/07/04 06:11:41;;;;;;;24.88;4.82;;;;;;;23.71;100.00;98164.31;5040018;28;20196;-56
2022/07/04 06:14:07;;;;;;;24.67;5.03;;;;;;;23.31;100.00;98162.66;5041613;28;20029;-56
2022/07/04 06:16:32;;;;;;;22.25;4.53;;;;;;;24.14;100.00;98168.34;5041381;28;20517;-56
2022/07/04 06:18:58;;;;;;;23.67;4.88;;;;;;;24.18;100.00;98167.88;5041060;28;20242;-58
2022/07/04 06:21:23;;;;;;;25.13;4.85;;;;;;;25.41;93.24;98165.88;5041055;28;20049;-57
2022/07/04 06:23:48;;;;;;;20.83;4.55;;;;;;;25.42;94.58;98161.34;5042560;28;20766;-56
2022/07/04 06:26:14;;;;;;;21.55;4.55;;;;;;;26.38;84.19;98155.22;5041252;28;20049;-56
2022/07/04 06:28:39;;;;;;;22.67;4.65;;;;;;;27.78;73.12;98162.59;5041285;28;20032;-56
2022/07/04 06:31:04;;;;;;;20.40;4.40;;;;;;;27.42;72.41;98156.75;5040634;28;20124;-57
2022/07/04 06:33:30;;;;;;;20.63;4.55;;;;;;;26.77;68.80;98160.09;5040721;28;20025;-57
2022/07/04 06:35:55;;;;;;;17.77;4.35;;;;;;;25.51;81.05;98155.09;5040914;28;20135;-56
2022/07/04 06:38:24;;;;;;;19.02;4.05;;;;;;;26.93;80.03;98152.13;5041635;28;20056;-56
2022/07/04 06:40:57;;;;;;;21.95;4.38;;;;;;;26.07;86.21;98161.06;5039215;28;20033;-56
2022/07/04 06:43:23;;;;;;;18.67;4.25;;;;;;;27.78;70.23;98162.59;5040820;28;20173;-57
2022/07/04 06:45:49;;;;;;;19.05;4.50;;;;;;;27.26;68.86;98158.41;5040812;28;20029;-57
2022/07/04 06:48:14;;;;;;;22.13;4.72;;;;;;;29.20;60.65;98154.81;5040747;28;20035;-56
2022/07/04 06:50:40;;;;;;;19.25;4.47;;;;;;;29.79;55.93;98160.44;5039429;28;20037;-57
2022/07/04 06:53:06;;;;;;;16.90;4.35;;;;;;;27.74;60.55;98155.91;5042085;28;20048;-57
2022/07/04 06:55:32;;;;;;;21.25;4.88;;;;;;;28.54;58.38;98156.97;5039581;28;20061;-56
2022/07/04 06:57:58;;;;;;;17.35;4.13;;;;;;;30.49;53.43;98144.94;5040181;28;20082;-56
2022/07/04 07:00:24;;;;;;;19.08;4.40;;;;;;;29.24;52.84;98153.41;5040035;28;20017;-57
2022/07/04 07:02:49;;;;;;;21.25;4.65;;;;;;;30.43;50.79;98151.06;5041579;28;20032;-56
2022/07/04 07:05:14;;;;;;;16.17;4.05;;;;;;;29.08;52.15;98143.63;5040452;28;20026;-58
2022/07/04 07:07:41;;;;;;;14.10;3.70;;;;;;;30.64;47.87;98152.13;5040875;28;20021;-58
2022/07/04 07:10:07;;;;;;;17.25;4.25;;;;;;;29.34;50.79;98147.84;5039084;28;20567;-57
2022/07/04 07:12:34;;;;;;;17.85;3.85;;;;;;;30.44;49.69;98150.03;5040210;28;20546;-57
2022/07/04 07:14:59;;;;;;;19.23;4.20;;;;;;;30.51;49.99;98150.97;5040533;28;20059;-58
2022/07/04 07:17:25;;;;;;;13.10;3.80;;;;;;;30.48;49.18;98151.34;5040189;28;20036;-57
2022/07/04 07:19:51;;;;;;;13.30;3.65;;;;;;;31.83;45.99;98151.75;5039080;28;20029;-57
2022/07/04 07:22:16;;;;;;;13.57;3.72;;;;;;;28.93;51.01;98146.22;5038920;28;20123;-57
2022/07/04 07:24:42;;;;;;;16.60;4.32;;;;;;;28.15;52.29;98155.88;5039916;28;20047;-57
2022/07/04 07:27:08;;;;;;;15.45;4.00;;;;;;;29.50;49.20;98149.53;5039204;28;20091;-56
2022/07/04 07:29:34;;;;;;;14.02;3.83;;;;;;;28.05;54.51;98153.38;5039860;28;20113;-58
2022/07/04 07:32:00;;;;;;;15.15;3.92;;;;;;;27.37;60.30;98159.94;5038189;28;20048;-57
2022/07/04 07:34:25;;;;;;;15.85;4.03;;;;;;;26.40;63.97;98158.56;5039505;28;20041;-57
2022/07/04 07:36:51;;;;;;;13.88;3.90;;;;;;;26.81;65.72;98153.41;5040147;28;20033;-57
2022/07/04 07:39:17;;;;;;;20.42;4.90;;;;;;;27.54;62.95;98149.22;5038920;28;20141;-56
2022/07/04 07:41:42;;;;;;;22.30;4.70;;;;;;;27.72;62.65;98157.06;5038467;28;20071;-57
2022/07/04 07:44:08;;;;;;;17.67;4.20;;;;;;;27.16;66.37;98156.84;5040237;28;20106;-57
2022/07/04 07:46:33;;;;;;;19.75;4.43;;;;;;;26.64;65.05;98155.19;5039604;28;20087;-57
2022/07/04 07:48:59;;;;;;;17.63;4.40;;;;;;;26.31;67.55;98152.34;5039786;28;20147;-56
2022/07/04 07:51:24;;;;;;;19.02;4.30;;;;;;;26.40;68.79;98155.91;5037830;28;20045;-57
2022/07/04 07:53:49;;;;;;;16.88;4.22;;;;;;;26.31;66.09;98153.16;5039486;28;20029;-56
2022/07/04 07:56:15;;;;;;;19.17;4.00;;;;;;;25.80;69.28;98156.66;5039551;28;20074;-58
2022/07/04 07:58:40;;;;;;;23.55;4.80;;;;;;;26.58;67.75;98153.97;5039684;28;20108;-56
2022/07/04 08:01:06;;;;;;;21.27;4.63;;;;;;;25.87;71.87;98155.88;5037301;28;20293;-56
2022/07/04 08:06:15;;;;;;;17.40;3.95;;;;;;;26.14;73.88;98146.06;5039985;28;20122;-57
2022/07/04 08:08:42;;;;;;;23.95;4.88;;;;;;;27.66;68.25;98150.53;5040708;28;20033;-56
2022/07/04 08:11:07;;;;;;;16.90;4.22;;;;;;;28.22;62.51;98159.53;5038702;28;20043;-56
2022/07/04 08:13:33;;;;;;;17.38;4.18;;;;;;;29.27;58.49;98153.06;5039349;28;20025;-57
2022/07/04 08:15:58;;;;;;;17.02;4.28;;;;;;;27.77;57.63;98150.19;5039945;28;20483;-57
2022/07/04 08:18:24;;;;;;;20.20;4.30;;;;;;;27.97;58.38;98155.25;5039743;28;20082;-57
2022/07/04 08:20:50;;;;;;;18.42;4.20;;;;;;;27.64;58.60;98142.69;5037353;28;20427;-56
2022/07/04 08:23:16;;;;;;;18.10;4.13;;;;;;;27.93;61.75;98148.56;5039510;28;20104;-56
2022/07/04 08:25:41;;;;;;;20.25;4.25;;;;;;;28.51;57.98;98144.72;5038826;28;20493;-57
2022/07/04 08:28:07;;;;;;;20.15;4.47;;;;;;;28.37;59.09;98145.44;5039248;28;20107;-57
2022/07/04 08:30:33;;;;;;;16.42;3.88;;;;;;;28.97;55.67;98146.72;5037341;28;20681;-56
2022/07/04 08:32:58;;;;;;;20.52;4.97;;;;;;;28.97;53.98;98135.97;5039229;28;20187;-56
2022/07/04 08:35:24;;;;;;;17.17;4.28;;;;;;;30.51;50.37;98140.19;5038669;28;20037;-56
2022/07/04 08:37:53;;;;;;;22.13;4.85;;;;;;;29.29;50.76;98137.63;5038475;28;20385;-56
2022/07/04 08:40:22;;;;;;;18.20;4.63;;;;;;;29.63;49.93;98141.72;5037070;28;20120;-56
2022/07/04 08:42:49;;;;;;;17.10;4.07;;;;;;;30.07;52.20;98135.63;5038810;28;20029;-57
2022/07/04 08:45:16;;;;;;;16.60;3.90;;;;;;;30.29;51.52;98141.09;5038693;28;20082;-57
2022/07/04 08:47:43;;;;;;;15.35;3.70;;;;;;;30.64;48.61;98136.00;5039164;28;20063;-59
2022/07/04 08:50:16;;;;;;;26.38;5.40;;;;;;;30.59;50.82;98127.66;5037356;28;20098;-56
2022/07/04 08:52:46;;;;;;;18.23;4.53;;;;;;;29.56;51.78;98127.34;5038361;28;20117;-56
2022/07/04 09:00:42;;;;;;;15.15;4.10;;;;;;;32.18;44.60;98122.16;5036731;28;20116;-57
2022/07/04 09:03:08;;;;;;;18.92;4.47;;;;;;;31.09;46.86;98115.22;5038375;28;20120;-57
2022/07/04 09:05:34;;;;;;;16.92;4.25;;;;;;;30.09;49.73;98117.44;5038468;28;20142;-58
2022/07/04 09:08:01;;;;;;;14.77;3.80;;;;;;;29.40;52.43;98115.69;5038690;28;20033;-57
2022/07/04 09:10:27;;;;;;;19.35;4.30;;;;;;;29.84;49.47;98113.34;5037204;28;20025;-56
2022/07/04 09:12:52;;;;;;;19.00;4.40;;;;;;;30.50;48.40;98113.47;5038515;28;20190;-56
2022/07/04 09:15:18;;;;;;;16.80;4.20;;;;;;;30.99;46.80;98107.44;5037450;28;20320;-56
2022/07/04 09:17:45;;;;;;;15.45;4.00;;;;;;;30.69;47.63;98112.84;5038736;28;20033;-56
2022/07/04 09:20:22;;;;;;;16.85;4.28;;;;;;;30.19;48.36;98119.84;5036635;28;20470;-56
2022/07/04 09:22:49;;;;;;;15.25;4.15;;;;;;;29.81;50.36;98114.53;5037740;28;20643;-58
2022/07/04 09:25:15;;;;;;;22.88;4.30;;;;;;;30.97;48.19;98111.34;5038590;28;20136;-57
2022/07/04 09:27:44;;;;;;;16.48;3.95;;;;;;;32.06;46.19;98120.03;5038029;28;20127;-56
2022/07/04 09:30:11;;;;;;;24.58;5.10;;;;;;;32.60;46.38;98125.72;5036692;28;20487;-57
2022/07/04 09:32:47;;;;;;;19.95;4.50;;;;;;;30.53;47.84;98122.00;5037765;28;20033;-58
2022/07/04 09:35:17;;;;;;;16.60;4.15;;;;;;;28.91;51.04;98125.91;5037547;28;20048;-58
2022/07/04 09:37:45;;;;;;;16.95;3.90;;;;;;;29.88;50.91;98133.47;5038890;28;20032;-59
2022/07/04 09:40:30;;;;;;;24.42;4.95;;;;;;;29.74;52.20;98133.25;5036670;28;20028;-56
2022/07/04 09:43:01;;;;;;;14.10;3.90;;;;;;;30.30;50.22;98138.22;5038025;28;20029;-56
2022/07/04 09:45:28;;;;;;;18.35;4.22;;;;;;;30.76;49.08;98139.88;5037448;28;20036;-57
2022/07/04 09:47:58;;;;;;;21.20;4.50;;;;;;;29.94;51.32;98132.72;5038119;28;20074;-59
2022/07/04 09:50:26;;;;;;;19.38;3.90;;;;;;;29.48;51.68;98130.09;5036866;28;20021;-57
2022/07/04 09:52:57;;;;;;;19.85;4.82;;;;;;;29.52;52.12;98134.06;5037572;28;20025;-58
2022/07/04 09:55:30;;;;;;;16.65;4.75;;;;;;;29.12;50.21;98128.81;5037176;28;20048;-57
2022/07/04 09:57:57;;;;;;;15.35;4.40;;;;;;;29.34;50.30;98132.53;5037630;28;20033;-57
2022/07/04 10:00:24;;;;;;;16.90;4.50;;;;;;;30.83;49.40;98131.88;5036824;28;20025;-57
2022/07/04 10:02:51;;;;;;;19.42;4.95;;;;;;;31.01;47.77;98137.72;5037760;28;20690;-57
2022/07/04 10:05:21;;;;;;;19.42;4.05;;;;;;;30.37;48.70;98146.41;5037187;28;20112;-57
2022/07/04 10:07:47;;;;;;;17.40;4.50;;;;;;;29.84;47.75;98148.28;5037533;28;20501;-57
2022/07/04 10:10:30;;;;;;;20.88;4.93;;;;;;;29.99;48.22;98141.91;5035599;28;20126;-57
2022/07/04 10:13:02;;;;;;;18.80;4.85;;;;;;;29.73;49.32;98144.16;5037527;28;20483;-57
2022/07/04 10:15:27;;;;;;;21.20;5.00;;;;;;;30.40;49.31;98148.72;5038075;28;20057;-57
2022/07/04 10:17:53;;;;;;;21.35;5.00;;;;;;;30.64;48.82;98144.91;5041432;28;20051;-58
2022/07/04 10:20:18;;;;;;;20.08;4.82;;;;;;;30.54;49.45;98153.25;5040291;28;20581;-57
2022/07/04 10:22:44;;;;;;;14.80;4.18;;;;;;;29.92;48.54;98145.50;5042917;28;20025;-57
2022/07/04 10:25:10;;;;;;;17.17;4.45;;;;;;;30.02;49.80;98146.09;5040922;28;20032;-57
2022/07/04 10:27:37;;;;;;;15.35;4.30;;;;;;;29.65;49.64;98150.44;5041673;28;20128;-57
2022/07/04 10:30:06;;;;;;;20.15;5.00;;;;;;;31.55;48.37;98152.56;5040335;28;20029;-57
2022/07/04 10:32:33;;;;;;;18.98;4.32;;;;;;;31.12;47.44;98153.38;5040125;28;20036;-57
2022/07/04 10:34:59;;;;;;;18.88;4.60;;;;;;;30.94;48.08;98145.72;5040492;28;20138;-59
2022/07/04 10:37:24;;;;;;;18.67;4.50;;;;;;;30.02;48.36;98156.03;5055393;28;20703;-57
2022/07/04 10:39:49;;;;;;;18.20;4.22;;;;;;;30.92;46.50;98147.75;5040668;28;20033;-56
2022/07/04 10:42:25;;;;;;;16.88;4.32;;;;;;;31.17;47.32;98155.47;5040052;28;20466;-57
2022/07/04 10:45:00;;;;;;;18.02;4.30;;;;;;;30.36;46.44;98152.81;5041423;28;20025;-57
2022/07/04 10:47:29;;;;;;;17.52;4.47;;;;;;;30.23;46.93;98152.59;5040012;28;20051;-57
2022/07/04 10:49:55;;;;;;;18.92;4.57;;;;;;;30.37;46.63;98146.41;5039999;28;20029;-57
2022/07/04 10:52:20;;;;;;;20.65;4.43;;;;;;;30.48;45.60;98154.03;5040640;28;20033;-58
2022/07/04 10:54:46;;;;;;;15.63;4.20;;;;;;;29.98;45.42;98150.19;5040809;28;20037;-57
2022/07/04 10:57:13;;;;;;;19.55;4.60;;;;;;;29.70;46.26;98148.06;5040168;28;20047;-58
2022/07/04 10:59:40;;;;;;;44.22;5.20;;;;;;;30.33;47.33;98155.88;5040176;28;20090;-57
2022/07/04 11:02:05;;;;;;;22.67;4.20;;;;;;;30.81;44.72;98156.31;5039031;28;20747;-58
2022/07/04 11:04:49;;;;;;;20.27;4.20;;;;;;;30.27;45.00;98153.88;5040118;28;20021;-57
2022/07/04 11:07:15;;;;;;;17.50;3.88;;;;;;;30.63;46.00;98150.47;5039837;28;20786;-57
2022/07/04 11:09:42;;;;;;;18.67;4.10;;;;;;;30.48;47.24;98151.34;5041063;28;20035;-57
2022/07/04 11:12:08;;;;;;;17.25;3.83;;;;;;;30.64;46.58;98149.44;5038651;28;20045;-57
2022/07/04 11:14:40;;;;;;;18.15;3.80;;;;;;;31.53;44.22;98154.63;5040409;28;20025;-57
2022/07/04 11:17:06;;;;;;;;;;;;;;;30.71;44.05;98153.91;5040517;28;20051;-57
2022/07/04 11:19:32;;;;;;;16.45;4.00;;;;;;;32.33;42.76;98155.28;5040230;28;19951;-57
2022/07/04 11:21:58;;;;;;;14.75;3.50;;;;;;;32.26;40.61;98149.00;5039332;28;20120;-57
2022/07/04 11:24:24;;;;;;;18.13;4.03;;;;;;;32.76;41.67;98144.28;5040290;28;20028;-57
2022/07/04 11:26:50;;;;;;;16.30;3.72;;;;;;;32.43;39.43;98144.94;5038998;28;20068;-57
2022/07/04 11:29:16;;;;;;;17.70;4.13;;;;;;;32.34;38.74;98127.22;5039710;28;20846;-58
2022/07/04 11:31:48;;;;;;;16.92;4.05;;;;;;;32.25;40.47;98126.56;5039185;28;20128;-58